sensor_id;sensor_type;location;lat;lon;timestamp;P1;durP1;ratioP1;P2;durP2;ratioP2
47749;SDS011;49810;48.160;10.812;2024-02-16T00:00:18;13.63;;;7.43;;
47749;SDS011;49810;48.160;10.812;2024-02-16T00:01:20;11.13;;;5.90;;
47749;SDS011;49810;48.160;10.812;2024-02-16T00:02:24;11.50;;;6.55;;
47749;SDS011;49810;48.160;10.812;2024-02-16T00:03:26;9.68;;;5.75;;
47749;SDS011;49810;48.160;10.812;2024-02-16T00:04:29;11.13;;;6.20;;
47749;SDS011;49810;48.160;10.812;2024-02-16T00:05:32;11.05;;;6.38;;
47749;SDS011;49810;48.160;10.812;2024-02-16T00:06:35;10.52;;;5.55;;
47749;SDS011;49810;48.160;10.812;2024-02-16T00:07:38;8.10;;;5.43;;
47749;SDS011;49810;48.160;10.812;2024-02-16T00:08:39;10.48;;;5.53;;
47749;SDS011;49810;48.160;10.812;2024-02-16T00:09:44;9.88;;;5.28;;
47749;SDS011;49810;48.160;10.812;2024-02-16T00:10:46;10.13;;;5.47;;
47749;SDS011;49810;48.160;10.812;2024-02-16T00:11:49;10.88;;;5.07;;
47749;SDS011;49810;48.160;10.812;2024-02-16T00:12:52;7.40;;;4.43;;
47749;SDS011;49810;48.160;10.812;2024-02-16T00:13:55;8.70;;;4.13;;
47749;SDS011;49810;48.160;10.812;2024-02-16T00:14:57;7.95;;;4.95;;
47749;SDS011;49810;48.160;10.812;2024-02-16T00:16:00;10.98;;;5.20;;
47749;SDS011;49810;48.160;10.812;2024-02-16T00:17:02;8.98;;;4.25;;
47749;SDS011;49810;48.160;10.812;2024-02-16T00:18:05;6.80;;;4.45;;
47749;SDS011;49810;48.160;10.812;2024-02-16T00:19:07;8.60;;;4.32;;
47749;SDS011;49810;48.160;10.812;2024-02-16T00:20:11;6.82;;;4.65;;
47749;SDS011;49810;48.160;10.812;2024-02-16T00:21:14;9.50;;;4.78;;
47749;SDS011;49810;48.160;10.812;2024-02-16T00:22:19;7.72;;;4.85;;
47749;SDS011;49810;48.160;10.812;2024-02-16T00:23:21;8.32;;;4.97;;
47749;SDS011;49810;48.160;10.812;2024-02-16T00:24:25;8.77;;;4.85;;
47749;SDS011;49810;48.160;10.812;2024-02-16T00:25:29;8.32;;;4.50;;
47749;SDS011;49810;48.160;10.812;2024-02-16T00:26:32;10.18;;;4.97;;
47749;SDS011;49810;48.160;10.812;2024-02-16T00:27:34;8.85;;;5.50;;
47749;SDS011;49810;48.160;10.812;2024-02-16T00:28:37;9.60;;;4.80;;
47749;SDS011;49810;48.160;10.812;2024-02-16T00:29:39;9.38;;;5.55;;
47749;SDS011;49810;48.160;10.812;2024-02-16T00:30:42;8.75;;;5.00;;
47749;SDS011;49810;48.160;10.812;2024-02-16T00:31:44;8.20;;;4.43;;
47749;SDS011;49810;48.160;10.812;2024-02-16T00:32:48;9.20;;;5.32;;
47749;SDS011;49810;48.160;10.812;2024-02-16T00:33:50;7.55;;;4.82;;
47749;SDS011;49810;48.160;10.812;2024-02-16T00:34:52;11.10;;;5.38;;
47749;SDS011;49810;48.160;10.812;2024-02-16T00:35:55;10.23;;;4.97;;
47749;SDS011;49810;48.160;10.812;2024-02-16T00:36:57;9.65;;;4.80;;
47749;SDS011;49810;48.160;10.812;2024-02-16T00:37:59;10.30;;;5.78;;
47749;SDS011;49810;48.160;10.812;2024-02-16T00:39:02;7.97;;;4.95;;
47749;SDS011;49810;48.160;10.812;2024-02-16T00:40:05;12.40;;;4.97;;
47749;SDS011;49810;48.160;10.812;2024-02-16T00:41:14;10.93;;;5.13;;
47749;SDS011;49810;48.160;10.812;2024-02-16T00:42:18;15.35;;;5.25;;
47749;SDS011;49810;48.160;10.812;2024-02-16T00:43:21;9.00;;;4.90;;
47749;SDS011;49810;48.160;10.812;2024-02-16T00:44:23;8.95;;;4.85;;
47749;SDS011;49810;48.160;10.812;2024-02-16T00:45:26;7.75;;;4.93;;
47749;SDS011;49810;48.160;10.812;2024-02-16T00:46:28;8.60;;;4.68;;
47749;SDS011;49810;48.160;10.812;2024-02-16T00:47:33;10.13;;;5.28;;
47749;SDS011;49810;48.160;10.812;2024-02-16T00:48:35;8.45;;;4.70;;
47749;SDS011;49810;48.160;10.812;2024-02-16T00:49:38;7.95;;;4.75;;
47749;SDS011;49810;48.160;10.812;2024-02-16T00:50:40;8.18;;;4.85;;
47749;SDS011;49810;48.160;10.812;2024-02-16T00:51:45;8.07;;;4.50;;
47749;SDS011;49810;48.160;10.812;2024-02-16T00:52:47;5.68;;;4.13;;
47749;SDS011;49810;48.160;10.812;2024-02-16T00:53:49;6.40;;;4.05;;
47749;SDS011;49810;48.160;10.812;2024-02-16T00:54:52;7.00;;;4.68;;
47749;SDS011;49810;48.160;10.812;2024-02-16T00:55:55;5.65;;;4.28;;
47749;SDS011;49810;48.160;10.812;2024-02-16T00:56:58;8.88;;;4.72;;
47749;SDS011;49810;48.160;10.812;2024-02-16T00:58:05;7.80;;;4.40;;
47749;SDS011;49810;48.160;10.812;2024-02-16T00:59:07;8.98;;;4.82;;
47749;SDS011;49810;48.160;10.812;2024-02-16T01:01:13;7.10;;;4.05;;
47749;SDS011;49810;48.160;10.812;2024-02-16T01:02:16;7.28;;;4.10;;
47749;SDS011;49810;48.160;10.812;2024-02-16T01:03:18;10.68;;;4.70;;
47749;SDS011;49810;48.160;10.812;2024-02-16T01:04:21;7.85;;;4.47;;
47749;SDS011;49810;48.160;10.812;2024-02-16T01:05:24;7.07;;;4.70;;
47749;SDS011;49810;48.160;10.812;2024-02-16T01:06:27;6.00;;;3.95;;
47749;SDS011;49810;48.160;10.812;2024-02-16T01:07:29;8.55;;;4.68;;
47749;SDS011;49810;48.160;10.812;2024-02-16T01:08:33;8.43;;;4.68;;
47749;SDS011;49810;48.160;10.812;2024-02-16T01:09:35;6.82;;;4.25;;
47749;SDS011;49810;48.160;10.812;2024-02-16T01:10:38;8.10;;;4.65;;
47749;SDS011;49810;48.160;10.812;2024-02-16T01:11:41;8.35;;;4.55;;
47749;SDS011;49810;48.160;10.812;2024-02-16T01:12:45;6.80;;;4.07;;
47749;SDS011;49810;48.160;10.812;2024-02-16T01:13:47;7.18;;;4.15;;
47749;SDS011;49810;48.160;10.812;2024-02-16T01:14:50;7.63;;;3.78;;
47749;SDS011;49810;48.160;10.812;2024-02-16T01:15:52;6.30;;;4.13;;
47749;SDS011;49810;48.160;10.812;2024-02-16T01:16:56;7.20;;;3.92;;
47749;SDS011;49810;48.160;10.812;2024-02-16T01:17:58;6.97;;;4.63;;
47749;SDS011;49810;48.160;10.812;2024-02-16T01:19:03;9.10;;;4.68;;
47749;SDS011;49810;48.160;10.812;2024-02-16T01:20:08;5.43;;;4.00;;
47749;SDS011;49810;48.160;10.812;2024-02-16T01:21:14;7.25;;;4.30;;
47749;SDS011;49810;48.160;10.812;2024-02-16T01:22:16;5.38;;;3.50;;
47749;SDS011;49810;48.160;10.812;2024-02-16T01:23:20;7.18;;;3.90;;
47749;SDS011;49810;48.160;10.812;2024-02-16T01:24:23;9.32;;;4.72;;
47749;SDS011;49810;48.160;10.812;2024-02-16T01:25:25;12.23;;;5.35;;
47749;SDS011;49810;48.160;10.812;2024-02-16T01:26:28;15.73;;;5.18;;
47749;SDS011;49810;48.160;10.812;2024-02-16T01:27:30;6.75;;;4.07;;
47749;SDS011;49810;48.160;10.812;2024-02-16T01:28:35;8.15;;;4.32;;
47749;SDS011;49810;48.160;10.812;2024-02-16T01:29:38;7.93;;;3.95;;
47749;SDS011;49810;48.160;10.812;2024-02-16T01:30:40;6.28;;;3.95;;
47749;SDS011;49810;48.160;10.812;2024-02-16T01:31:42;6.57;;;4.03;;
47749;SDS011;49810;48.160;10.812;2024-02-16T01:32:45;19.63;;;4.03;;
47749;SDS011;49810;48.160;10.812;2024-02-16T01:33:47;6.10;;;3.25;;
47749;SDS011;49810;48.160;10.812;2024-02-16T01:34:50;5.20;;;3.63;;
47749;SDS011;49810;48.160;10.812;2024-02-16T01:35:52;5.65;;;3.25;;
47749;SDS011;49810;48.160;10.812;2024-02-16T01:36:55;6.07;;;3.63;;
47749;SDS011;49810;48.160;10.812;2024-02-16T01:37:57;7.13;;;3.90;;
47749;SDS011;49810;48.160;10.812;2024-02-16T01:39:00;6.55;;;3.42;;
47749;SDS011;49810;48.160;10.812;2024-02-16T01:40:03;7.65;;;4.47;;
47749;SDS011;49810;48.160;10.812;2024-02-16T01:41:05;5.60;;;4.05;;
47749;SDS011;49810;48.160;10.812;2024-02-16T01:42:09;8.38;;;3.58;;
47749;SDS011;49810;48.160;10.812;2024-02-16T01:43:11;7.32;;;4.03;;
47749;SDS011;49810;48.160;10.812;2024-02-16T01:44:15;8.38;;;3.50;;
47749;SDS011;49810;48.160;10.812;2024-02-16T01:45:18;6.53;;;4.18;;
47749;SDS011;49810;48.160;10.812;2024-02-16T01:46:21;6.07;;;3.50;;
47749;SDS011;49810;48.160;10.812;2024-02-16T01:47:24;5.38;;;3.30;;
47749;SDS011;49810;48.160;10.812;2024-02-16T01:48:27;7.90;;;4.15;;
47749;SDS011;49810;48.160;10.812;2024-02-16T01:49:29;5.88;;;3.58;;
47749;SDS011;49810;48.160;10.812;2024-02-16T01:50:32;7.60;;;3.53;;
47749;SDS011;49810;48.160;10.812;2024-02-16T01:51:38;6.15;;;3.75;;
47749;SDS011;49810;48.160;10.812;2024-02-16T01:52:41;6.47;;;3.58;;
47749;SDS011;49810;48.160;10.812;2024-02-16T01:53:44;5.15;;;3.50;;
47749;SDS011;49810;48.160;10.812;2024-02-16T01:54:47;5.75;;;3.53;;
47749;SDS011;49810;48.160;10.812;2024-02-16T01:55:49;5.13;;;3.42;;
47749;SDS011;49810;48.160;10.812;2024-02-16T01:56:52;7.60;;;4.15;;
47749;SDS011;49810;48.160;10.812;2024-02-16T01:57:54;5.93;;;3.50;;
47749;SDS011;49810;48.160;10.812;2024-02-16T01:58:57;7.97;;;3.47;;
47749;SDS011;49810;48.160;10.812;2024-02-16T02:00:01;4.88;;;3.42;;
47749;SDS011;49810;48.160;10.812;2024-02-16T02:01:05;6.32;;;3.30;;
47749;SDS011;49810;48.160;10.812;2024-02-16T02:02:07;5.90;;;3.50;;
47749;SDS011;49810;48.160;10.812;2024-02-16T02:03:10;5.22;;;3.60;;
47749;SDS011;49810;48.160;10.812;2024-02-16T02:04:13;6.05;;;4.07;;
47749;SDS011;49810;48.160;10.812;2024-02-16T02:05:14;6.68;;;4.03;;
47749;SDS011;49810;48.160;10.812;2024-02-16T02:06:18;6.65;;;3.70;;
47749;SDS011;49810;48.160;10.812;2024-02-16T02:07:24;7.50;;;4.32;;
47749;SDS011;49810;48.160;10.812;2024-02-16T02:08:27;6.28;;;3.95;;
47749;SDS011;49810;48.160;10.812;2024-02-16T02:09:29;7.68;;;3.53;;
47749;SDS011;49810;48.160;10.812;2024-02-16T02:10:32;7.15;;;3.25;;
47749;SDS011;49810;48.160;10.812;2024-02-16T02:11:34;6.60;;;3.47;;
47749;SDS011;49810;48.160;10.812;2024-02-16T02:12:37;7.03;;;5.03;;
47749;SDS011;49810;48.160;10.812;2024-02-16T02:13:39;6.68;;;4.20;;
47749;SDS011;49810;48.160;10.812;2024-02-16T02:14:43;7.03;;;4.05;;
47749;SDS011;49810;48.160;10.812;2024-02-16T02:15:47;6.18;;;3.58;;
47749;SDS011;49810;48.160;10.812;2024-02-16T02:16:50;7.50;;;4.10;;
47749;SDS011;49810;48.160;10.812;2024-02-16T02:17:59;6.15;;;3.60;;
47749;SDS011;49810;48.160;10.812;2024-02-16T02:19:02;8.38;;;4.35;;
47749;SDS011;49810;48.160;10.812;2024-02-16T02:20:05;7.90;;;4.70;;
47749;SDS011;49810;48.160;10.812;2024-02-16T02:21:12;7.57;;;4.10;;
47749;SDS011;49810;48.160;10.812;2024-02-16T02:22:17;5.97;;;3.97;;
47749;SDS011;49810;48.160;10.812;2024-02-16T02:23:20;6.03;;;3.97;;
47749;SDS011;49810;48.160;10.812;2024-02-16T02:24:22;8.55;;;4.15;;
47749;SDS011;49810;48.160;10.812;2024-02-16T02:25:25;5.72;;;3.63;;
47749;SDS011;49810;48.160;10.812;2024-02-16T02:26:30;5.20;;;3.40;;
47749;SDS011;49810;48.160;10.812;2024-02-16T02:27:34;7.25;;;3.72;;
47749;SDS011;49810;48.160;10.812;2024-02-16T02:28:36;7.30;;;4.10;;
47749;SDS011;49810;48.160;10.812;2024-02-16T02:29:39;8.00;;;4.28;;
47749;SDS011;49810;48.160;10.812;2024-02-16T02:30:41;8.10;;;4.47;;
47749;SDS011;49810;48.160;10.812;2024-02-16T02:31:44;8.95;;;4.07;;
47749;SDS011;49810;48.160;10.812;2024-02-16T02:32:46;8.52;;;4.35;;
47749;SDS011;49810;48.160;10.812;2024-02-16T02:34:52;6.10;;;3.72;;
47749;SDS011;49810;48.160;10.812;2024-02-16T02:35:54;6.78;;;4.00;;
47749;SDS011;49810;48.160;10.812;2024-02-16T02:36:57;5.88;;;4.15;;
47749;SDS011;49810;48.160;10.812;2024-02-16T02:38:01;6.93;;;4.07;;
47749;SDS011;49810;48.160;10.812;2024-02-16T02:39:04;9.73;;;4.05;;
47749;SDS011;49810;48.160;10.812;2024-02-16T02:40:08;5.57;;;3.85;;
47749;SDS011;49810;48.160;10.812;2024-02-16T02:41:10;6.07;;;3.92;;
47749;SDS011;49810;48.160;10.812;2024-02-16T02:42:13;7.65;;;4.43;;
47749;SDS011;49810;48.160;10.812;2024-02-16T02:43:15;5.60;;;3.30;;
47749;SDS011;49810;48.160;10.812;2024-02-16T02:44:20;7.43;;;4.00;;
47749;SDS011;49810;48.160;10.812;2024-02-16T02:45:22;8.38;;;4.30;;
47749;SDS011;49810;48.160;10.812;2024-02-16T02:46:25;6.28;;;3.88;;
47749;SDS011;49810;48.160;10.812;2024-02-16T02:47:29;5.80;;;3.47;;
47749;SDS011;49810;48.160;10.812;2024-02-16T02:49:36;8.40;;;3.58;;
47749;SDS011;49810;48.160;10.812;2024-02-16T02:50:39;5.47;;;3.60;;
47749;SDS011;49810;48.160;10.812;2024-02-16T02:51:41;5.07;;;3.30;;
47749;SDS011;49810;48.160;10.812;2024-02-16T02:52:44;6.28;;;4.00;;
47749;SDS011;49810;48.160;10.812;2024-02-16T02:53:48;7.05;;;3.53;;
47749;SDS011;49810;48.160;10.812;2024-02-16T02:54:51;5.88;;;3.30;;
47749;SDS011;49810;48.160;10.812;2024-02-16T02:55:53;6.45;;;3.70;;
47749;SDS011;49810;48.160;10.812;2024-02-16T02:56:56;6.53;;;3.92;;
47749;SDS011;49810;48.160;10.812;2024-02-16T02:57:58;5.22;;;3.17;;
47749;SDS011;49810;48.160;10.812;2024-02-16T02:59:01;5.95;;;3.55;;
47749;SDS011;49810;48.160;10.812;2024-02-16T03:00:03;6.60;;;3.95;;
47749;SDS011;49810;48.160;10.812;2024-02-16T03:01:09;8.35;;;4.13;;
47749;SDS011;49810;48.160;10.812;2024-02-16T03:02:11;6.80;;;4.55;;
47749;SDS011;49810;48.160;10.812;2024-02-16T03:03:14;4.95;;;3.50;;
47749;SDS011;49810;48.160;10.812;2024-02-16T03:04:16;6.10;;;4.07;;
47749;SDS011;49810;48.160;10.812;2024-02-16T03:05:19;5.82;;;4.05;;
47749;SDS011;49810;48.160;10.812;2024-02-16T03:06:21;5.68;;;3.72;;
47749;SDS011;49810;48.160;10.812;2024-02-16T03:07:25;5.38;;;3.45;;
47749;SDS011;49810;48.160;10.812;2024-02-16T03:08:27;6.15;;;3.58;;
47749;SDS011;49810;48.160;10.812;2024-02-16T03:09:31;6.93;;;3.53;;
47749;SDS011;49810;48.160;10.812;2024-02-16T03:10:34;6.75;;;3.88;;
47749;SDS011;49810;48.160;10.812;2024-02-16T03:11:38;7.22;;;3.53;;
47749;SDS011;49810;48.160;10.812;2024-02-16T03:12:40;5.25;;;3.50;;
47749;SDS011;49810;48.160;10.812;2024-02-16T03:13:43;9.00;;;3.53;;
47749;SDS011;49810;48.160;10.812;2024-02-16T03:14:45;7.15;;;3.50;;
47749;SDS011;49810;48.160;10.812;2024-02-16T03:15:48;4.88;;;3.65;;
47749;SDS011;49810;48.160;10.812;2024-02-16T03:16:50;5.15;;;3.58;;
47749;SDS011;49810;48.160;10.812;2024-02-16T03:17:53;5.97;;;4.07;;
47749;SDS011;49810;48.160;10.812;2024-02-16T03:18:55;6.00;;;3.78;;
47749;SDS011;49810;48.160;10.812;2024-02-16T03:19:58;6.50;;;3.22;;
47749;SDS011;49810;48.160;10.812;2024-02-16T03:21:00;3.75;;;2.67;;
47749;SDS011;49810;48.160;10.812;2024-02-16T03:22:03;5.38;;;3.60;;
47749;SDS011;49810;48.160;10.812;2024-02-16T03:23:05;6.70;;;3.47;;
47749;SDS011;49810;48.160;10.812;2024-02-16T03:24:08;6.45;;;3.80;;
47749;SDS011;49810;48.160;10.812;2024-02-16T03:25:12;6.95;;;3.50;;
47749;SDS011;49810;48.160;10.812;2024-02-16T03:26:15;7.57;;;3.70;;
47749;SDS011;49810;48.160;10.812;2024-02-16T03:27:17;5.05;;;3.50;;
47749;SDS011;49810;48.160;10.812;2024-02-16T03:28:20;5.50;;;3.00;;
47749;SDS011;49810;48.160;10.812;2024-02-16T03:29:22;5.38;;;3.08;;
47749;SDS011;49810;48.160;10.812;2024-02-16T03:30:25;5.75;;;3.42;;
47749;SDS011;49810;48.160;10.812;2024-02-16T03:31:27;6.90;;;3.35;;
47749;SDS011;49810;48.160;10.812;2024-02-16T03:32:31;7.18;;;4.05;;
47749;SDS011;49810;48.160;10.812;2024-02-16T03:33:33;5.80;;;3.58;;
47749;SDS011;49810;48.160;10.812;2024-02-16T03:34:36;5.93;;;3.72;;
47749;SDS011;49810;48.160;10.812;2024-02-16T03:35:38;6.90;;;3.95;;
47749;SDS011;49810;48.160;10.812;2024-02-16T03:36:42;5.90;;;3.65;;
47749;SDS011;49810;48.160;10.812;2024-02-16T03:37:44;5.75;;;3.30;;
47749;SDS011;49810;48.160;10.812;2024-02-16T03:38:47;5.55;;;3.50;;
47749;SDS011;49810;48.160;10.812;2024-02-16T03:39:51;6.63;;;3.75;;
47749;SDS011;49810;48.160;10.812;2024-02-16T03:40:56;6.18;;;3.80;;
47749;SDS011;49810;48.160;10.812;2024-02-16T03:41:58;6.63;;;3.40;;
47749;SDS011;49810;48.160;10.812;2024-02-16T03:43:01;6.57;;;3.67;;
47749;SDS011;49810;48.160;10.812;2024-02-16T03:44:03;6.30;;;3.85;;
47749;SDS011;49810;48.160;10.812;2024-02-16T03:45:07;6.80;;;3.55;;
47749;SDS011;49810;48.160;10.812;2024-02-16T03:46:09;7.10;;;3.00;;
47749;SDS011;49810;48.160;10.812;2024-02-16T03:47:12;6.00;;;3.55;;
47749;SDS011;49810;48.160;10.812;2024-02-16T03:48:14;4.38;;;3.35;;
47749;SDS011;49810;48.160;10.812;2024-02-16T03:49:17;5.05;;;3.17;;
47749;SDS011;49810;48.160;10.812;2024-02-16T03:50:19;5.65;;;3.22;;
47749;SDS011;49810;48.160;10.812;2024-02-16T03:51:24;7.05;;;3.35;;
47749;SDS011;49810;48.160;10.812;2024-02-16T03:52:26;4.20;;;2.78;;
47749;SDS011;49810;48.160;10.812;2024-02-16T03:53:29;4.80;;;2.90;;
47749;SDS011;49810;48.160;10.812;2024-02-16T03:54:31;7.13;;;2.92;;
47749;SDS011;49810;48.160;10.812;2024-02-16T03:55:34;6.45;;;3.35;;
47749;SDS011;49810;48.160;10.812;2024-02-16T03:56:39;4.55;;;3.17;;
47749;SDS011;49810;48.160;10.812;2024-02-16T03:57:42;5.72;;;2.90;;
47749;SDS011;49810;48.160;10.812;2024-02-16T03:58:44;6.60;;;3.80;;
47749;SDS011;49810;48.160;10.812;2024-02-16T03:59:47;4.65;;;3.08;;
47749;SDS011;49810;48.160;10.812;2024-02-16T04:00:49;5.97;;;3.13;;
47749;SDS011;49810;48.160;10.812;2024-02-16T04:01:54;5.53;;;2.90;;
47749;SDS011;49810;48.160;10.812;2024-02-16T04:02:56;6.55;;;3.22;;
47749;SDS011;49810;48.160;10.812;2024-02-16T04:03:59;5.78;;;3.13;;
47749;SDS011;49810;48.160;10.812;2024-02-16T04:05:01;6.88;;;3.42;;
47749;SDS011;49810;48.160;10.812;2024-02-16T04:07:07;8.20;;;3.35;;
47749;SDS011;49810;48.160;10.812;2024-02-16T04:08:10;6.35;;;3.30;;
47749;SDS011;49810;48.160;10.812;2024-02-16T04:09:12;5.75;;;3.00;;
47749;SDS011;49810;48.160;10.812;2024-02-16T04:10:16;5.28;;;3.38;;
47749;SDS011;49810;48.160;10.812;2024-02-16T04:11:18;5.68;;;3.10;;
47749;SDS011;49810;48.160;10.812;2024-02-16T04:12:22;7.03;;;3.53;;
47749;SDS011;49810;48.160;10.812;2024-02-16T04:13:24;8.38;;;3.03;;
47749;SDS011;49810;48.160;10.812;2024-02-16T04:14:27;5.97;;;2.92;;
47749;SDS011;49810;48.160;10.812;2024-02-16T04:15:29;5.93;;;3.10;;
47749;SDS011;49810;48.160;10.812;2024-02-16T04:16:33;4.55;;;2.40;;
47749;SDS011;49810;48.160;10.812;2024-02-16T04:17:35;5.72;;;2.90;;
47749;SDS011;49810;48.160;10.812;2024-02-16T04:18:37;6.75;;;2.90;;
47749;SDS011;49810;48.160;10.812;2024-02-16T04:19:40;5.75;;;2.72;;
47749;SDS011;49810;48.160;10.812;2024-02-16T04:20:42;4.95;;;2.85;;
47749;SDS011;49810;48.160;10.812;2024-02-16T04:21:45;6.03;;;3.42;;
47749;SDS011;49810;48.160;10.812;2024-02-16T04:22:47;6.95;;;2.83;;
47749;SDS011;49810;48.160;10.812;2024-02-16T04:23:50;6.18;;;3.72;;
47749;SDS011;49810;48.160;10.812;2024-02-16T04:24:52;4.43;;;2.90;;
47749;SDS011;49810;48.160;10.812;2024-02-16T04:25:57;4.82;;;2.50;;
47749;SDS011;49810;48.160;10.812;2024-02-16T04:26:59;6.93;;;3.92;;
47749;SDS011;49810;48.160;10.812;2024-02-16T04:28:05;6.55;;;2.88;;
47749;SDS011;49810;48.160;10.812;2024-02-16T04:29:07;6.38;;;3.17;;
47749;SDS011;49810;48.160;10.812;2024-02-16T04:30:10;5.03;;;2.45;;
47749;SDS011;49810;48.160;10.812;2024-02-16T04:31:12;6.07;;;3.28;;
47749;SDS011;49810;48.160;10.812;2024-02-16T04:32:15;7.00;;;2.83;;
47749;SDS011;49810;48.160;10.812;2024-02-16T04:33:17;5.18;;;3.17;;
47749;SDS011;49810;48.160;10.812;2024-02-16T04:34:20;5.43;;;3.10;;
47749;SDS011;49810;48.160;10.812;2024-02-16T04:35:22;4.25;;;2.72;;
47749;SDS011;49810;48.160;10.812;2024-02-16T04:36:25;5.13;;;3.35;;
47749;SDS011;49810;48.160;10.812;2024-02-16T04:37:28;9.43;;;5.85;;
47749;SDS011;49810;48.160;10.812;2024-02-16T04:38:30;9.25;;;4.75;;
47749;SDS011;49810;48.160;10.812;2024-02-16T04:39:34;9.18;;;4.70;;
47749;SDS011;49810;48.160;10.812;2024-02-16T04:40:37;6.55;;;4.38;;
47749;SDS011;49810;48.160;10.812;2024-02-16T04:41:40;6.30;;;3.50;;
47749;SDS011;49810;48.160;10.812;2024-02-16T04:42:42;6.70;;;3.63;;
47749;SDS011;49810;48.160;10.812;2024-02-16T04:43:46;6.47;;;3.05;;
47749;SDS011;49810;48.160;10.812;2024-02-16T04:44:48;5.93;;;3.58;;
47749;SDS011;49810;48.160;10.812;2024-02-16T04:45:51;4.72;;;3.08;;
47749;SDS011;49810;48.160;10.812;2024-02-16T04:46:53;5.32;;;2.97;;
47749;SDS011;49810;48.160;10.812;2024-02-16T04:47:56;6.60;;;3.25;;
47749;SDS011;49810;48.160;10.812;2024-02-16T04:48:58;5.47;;;2.63;;
47749;SDS011;49810;48.160;10.812;2024-02-16T04:50:01;5.53;;;2.85;;
47749;SDS011;49810;48.160;10.812;2024-02-16T04:51:04;3.83;;;2.75;;
47749;SDS011;49810;48.160;10.812;2024-02-16T04:52:06;14.30;;;6.78;;
47749;SDS011;49810;48.160;10.812;2024-02-16T04:53:10;22.75;;;10.80;;
47749;SDS011;49810;48.160;10.812;2024-02-16T04:54:12;16.83;;;7.22;;
47749;SDS011;49810;48.160;10.812;2024-02-16T04:55:15;16.00;;;8.13;;
47749;SDS011;49810;48.160;10.812;2024-02-16T04:56:17;20.15;;;9.30;;
47749;SDS011;49810;48.160;10.812;2024-02-16T04:57:19;5.50;;;3.40;;
47749;SDS011;49810;48.160;10.812;2024-02-16T04:58:22;4.85;;;2.63;;
47749;SDS011;49810;48.160;10.812;2024-02-16T04:59:27;5.45;;;2.70;;
47749;SDS011;49810;48.160;10.812;2024-02-16T05:00:29;5.65;;;3.00;;
47749;SDS011;49810;48.160;10.812;2024-02-16T05:01:32;7.28;;;2.75;;
47749;SDS011;49810;48.160;10.812;2024-02-16T05:02:34;5.47;;;2.60;;
47749;SDS011;49810;48.160;10.812;2024-02-16T05:03:37;5.40;;;3.05;;
47749;SDS011;49810;48.160;10.812;2024-02-16T05:04:39;5.55;;;3.08;;
47749;SDS011;49810;48.160;10.812;2024-02-16T05:05:42;5.50;;;2.90;;
47749;SDS011;49810;48.160;10.812;2024-02-16T05:06:44;11.10;;;5.60;;
47749;SDS011;49810;48.160;10.812;2024-02-16T05:07:48;6.65;;;3.08;;
47749;SDS011;49810;48.160;10.812;2024-02-16T05:08:51;4.90;;;2.65;;
47749;SDS011;49810;48.160;10.812;2024-02-16T05:09:54;6.95;;;3.00;;
47749;SDS011;49810;48.160;10.812;2024-02-16T05:11:00;4.25;;;2.95;;
47749;SDS011;49810;48.160;10.812;2024-02-16T05:12:02;6.72;;;2.90;;
47749;SDS011;49810;48.160;10.812;2024-02-16T05:13:06;4.55;;;2.70;;
47749;SDS011;49810;48.160;10.812;2024-02-16T05:14:08;8.20;;;4.25;;
47749;SDS011;49810;48.160;10.812;2024-02-16T05:15:12;11.10;;;5.88;;
47749;SDS011;49810;48.160;10.812;2024-02-16T05:16:15;6.60;;;3.78;;
47749;SDS011;49810;48.160;10.812;2024-02-16T05:17:18;8.50;;;3.63;;
47749;SDS011;49810;48.160;10.812;2024-02-16T05:18:21;7.85;;;3.92;;
47749;SDS011;49810;48.160;10.812;2024-02-16T05:19:24;5.88;;;3.65;;
47749;SDS011;49810;48.160;10.812;2024-02-16T05:20:26;5.07;;;3.15;;
47749;SDS011;49810;48.160;10.812;2024-02-16T05:21:29;5.10;;;2.83;;
47749;SDS011;49810;48.160;10.812;2024-02-16T05:22:31;6.03;;;2.85;;
47749;SDS011;49810;48.160;10.812;2024-02-16T05:23:34;4.70;;;2.78;;
47749;SDS011;49810;48.160;10.812;2024-02-16T05:24:36;6.10;;;2.75;;
47749;SDS011;49810;48.160;10.812;2024-02-16T05:25:39;4.65;;;2.72;;
47749;SDS011;49810;48.160;10.812;2024-02-16T05:26:41;4.45;;;2.55;;
47749;SDS011;49810;48.160;10.812;2024-02-16T05:27:44;5.88;;;2.75;;
47749;SDS011;49810;48.160;10.812;2024-02-16T05:28:46;5.13;;;2.30;;
47749;SDS011;49810;48.160;10.812;2024-02-16T05:29:49;5.45;;;2.72;;
47749;SDS011;49810;48.160;10.812;2024-02-16T05:30:53;4.90;;;2.70;;
47749;SDS011;49810;48.160;10.812;2024-02-16T05:31:57;19.13;;;9.48;;
47749;SDS011;49810;48.160;10.812;2024-02-16T05:32:59;15.55;;;9.23;;
47749;SDS011;49810;48.160;10.812;2024-02-16T05:34:02;5.72;;;2.47;;
47749;SDS011;49810;48.160;10.812;2024-02-16T05:35:04;4.03;;;2.45;;
47749;SDS011;49810;48.160;10.812;2024-02-16T05:36:15;3.60;;;2.10;;
47749;SDS011;49810;48.160;10.812;2024-02-16T05:37:17;9.20;;;3.13;;
47749;SDS011;49810;48.160;10.812;2024-02-16T05:38:21;4.28;;;2.78;;
47749;SDS011;49810;48.160;10.812;2024-02-16T05:39:36;7.43;;;2.92;;
47749;SDS011;49810;48.160;10.812;2024-02-16T05:40:55;9.43;;;4.32;;
47749;SDS011;49810;48.160;10.812;2024-02-16T05:41:58;6.53;;;2.75;;
47749;SDS011;49810;48.160;10.812;2024-02-16T05:43:01;7.97;;;3.67;;
47749;SDS011;49810;48.160;10.812;2024-02-16T05:44:04;6.25;;;3.55;;
47749;SDS011;49810;48.160;10.812;2024-02-16T05:45:07;4.90;;;3.03;;
47749;SDS011;49810;48.160;10.812;2024-02-16T05:46:14;6.82;;;2.72;;
47749;SDS011;49810;48.160;10.812;2024-02-16T05:47:17;7.22;;;3.03;;
47749;SDS011;49810;48.160;10.812;2024-02-16T05:48:19;6.55;;;2.60;;
47749;SDS011;49810;48.160;10.812;2024-02-16T05:49:23;5.25;;;2.47;;
47749;SDS011;49810;48.160;10.812;2024-02-16T05:50:26;6.07;;;2.78;;
47749;SDS011;49810;48.160;10.812;2024-02-16T05:51:34;6.03;;;2.45;;
47749;SDS011;49810;48.160;10.812;2024-02-16T05:52:36;6.10;;;2.50;;
47749;SDS011;49810;48.160;10.812;2024-02-16T05:53:38;4.60;;;2.75;;
47749;SDS011;49810;48.160;10.812;2024-02-16T05:54:41;4.38;;;2.95;;
47749;SDS011;49810;48.160;10.812;2024-02-16T05:55:43;4.03;;;2.83;;
47749;SDS011;49810;48.160;10.812;2024-02-16T05:56:46;5.13;;;3.28;;
47749;SDS011;49810;48.160;10.812;2024-02-16T05:57:50;7.30;;;3.70;;
47749;SDS011;49810;48.160;10.812;2024-02-16T05:58:52;10.40;;;4.20;;
47749;SDS011;49810;48.160;10.812;2024-02-16T05:59:54;6.22;;;3.88;;
47749;SDS011;49810;48.160;10.812;2024-02-16T06:00:59;9.95;;;4.28;;
47749;SDS011;49810;48.160;10.812;2024-02-16T06:02:05;6.18;;;3.97;;
47749;SDS011;49810;48.160;10.812;2024-02-16T06:03:08;5.25;;;3.40;;
47749;SDS011;49810;48.160;10.812;2024-02-16T06:04:11;10.15;;;4.00;;
47749;SDS011;49810;48.160;10.812;2024-02-16T06:05:13;6.97;;;3.90;;
47749;SDS011;49810;48.160;10.812;2024-02-16T06:06:16;7.70;;;3.92;;
47749;SDS011;49810;48.160;10.812;2024-02-16T06:07:18;7.63;;;4.18;;
47749;SDS011;49810;48.160;10.812;2024-02-16T06:08:21;5.03;;;3.42;;
47749;SDS011;49810;48.160;10.812;2024-02-16T06:09:23;4.72;;;3.00;;
47749;SDS011;49810;48.160;10.812;2024-02-16T06:10:26;5.13;;;3.30;;
47749;SDS011;49810;48.160;10.812;2024-02-16T06:11:28;5.28;;;3.38;;
47749;SDS011;49810;48.160;10.812;2024-02-16T06:12:31;5.72;;;2.80;;
47749;SDS011;49810;48.160;10.812;2024-02-16T06:13:33;7.28;;;3.10;;
47749;SDS011;49810;48.160;10.812;2024-02-16T06:14:36;3.33;;;2.40;;
47749;SDS011;49810;48.160;10.812;2024-02-16T06:15:38;4.47;;;2.33;;
47749;SDS011;49810;48.160;10.812;2024-02-16T06:16:41;7.10;;;3.20;;
47749;SDS011;49810;48.160;10.812;2024-02-16T06:17:45;6.30;;;3.03;;